Flugplatz Laucha

Für EDBL sind keine METAR/TAF Berichte vorhanden.
Es werden die Flugwettermeldungen vom Flugplatz Leipzig Halle in 42 km Entfernung angezeigt.

Bericht für EDDP

vom 21.07. um 20:20 UTC

Wind 4 kt aus 310°

Sichtweite 10 km oder mehr

gute Sicht, keine Wolken < 5000 ft, keine CB, keine Wettererscheinungen (CAVOK)

Temperatur 20.0°C

Taupunkt 13.0°C

Luftfeuchtigkeit 64%

Luftdruck 1022 hPa

keine wesentliche Wetteränderung innerhalb den nächsten 2 Stunden zu erwarten

EDDP 212020Z 31004KT CAVOK 20/13 Q1022 NOSIG

Prognose für EDDP

vom 21.07. um 00:00 UTC

Zwischen 00:00 UTC und 00:00 UTC

Wind 6 kt aus 310°

Sichtweite 10 km oder mehr

keine signifikanten Wettererscheinungen

keine Wolken


Zwischen 00:00 und 00:00 UTC übergehend zu

Wind 4 kt aus 210°

Sichtweite 10 km oder mehr

keine signifikanten Wettererscheinungen

keine Wolken


Am 22.07. zwischen 00:00 und 00:00 UTC übergehend zu

Wind 7 kt aus 270°

Sichtweite 10 km oder mehr

keine signifikanten Wettererscheinungen

keine Wolken

TAF EDDP 211700Z 2118/2218 31006KT CAVOK BECMG 2120/2123 21004KT BECMG 2208/2210 27007KT
Impressum